createdAt,value
2023-02-14T00:00:31.996Z,-1.24
2023-02-14T00:05:35.187Z,-1.26
2023-02-14T00:10:38.647Z,-1.28
2023-02-14T00:15:41.771Z,-1.33
2023-02-14T00:20:45.162Z,-1.32
2023-02-14T00:25:48.316Z,-1.41
2023-02-14T00:30:51.347Z,-1.40
2023-02-14T00:35:54.774Z,-1.45
2023-02-14T00:40:58.636Z,-1.48
2023-02-14T00:46:02.714Z,-1.30
2023-02-14T00:51:07.036Z,-1.12
2023-02-14T00:56:10.255Z,-1.17
2023-02-14T01:01:15.059Z,-1.25
2023-02-14T01:06:19.323Z,-1.33
2023-02-14T01:11:24.269Z,-1.38
2023-02-14T01:16:30.338Z,-1.36
2023-02-14T01:21:34.321Z,-1.30
2023-02-14T01:26:37.911Z,-1.16
2023-02-14T01:31:41.155Z,-0.96
2023-02-14T01:36:44.253Z,-0.86
2023-02-14T01:41:49.085Z,-0.67
2023-02-14T01:46:52.690Z,-0.64
2023-02-14T01:52:06.388Z,-0.51
2023-02-14T01:57:13.999Z,-0.51
2023-02-14T02:02:24.122Z,-0.60
2023-02-14T02:07:28.241Z,-0.72
2023-02-14T02:12:36.010Z,-0.95
2023-02-14T02:17:42.474Z,-0.94
2023-02-14T02:23:13.451Z,-0.85
2023-02-14T02:29:14.301Z,-1.01
2023-02-14T02:34:32.210Z,-1.25
2023-02-14T02:40:00.309Z,-1.42
2023-02-14T02:45:19.625Z,-1.56
2023-02-14T02:51:05.190Z,-1.56
2023-02-14T02:56:33.448Z,-1.64
2023-02-14T03:01:41.686Z,-1.67
2023-02-14T03:06:46.433Z,-1.53
2023-02-14T03:12:07.808Z,-1.51
2023-02-14T03:17:31.676Z,-1.68
2023-02-14T03:22:44.796Z,-1.71
2023-02-14T03:27:59.143Z,-1.70
2023-02-14T03:33:10.140Z,-1.58
2023-02-14T03:38:36.958Z,-1.57
2023-02-14T03:43:47.333Z,-1.66
2023-02-14T03:48:53.468Z,-1.93
2023-02-14T03:53:59.459Z,-2.00
2023-02-14T03:59:11.996Z,-1.99
2023-02-14T04:04:18.384Z,-1.98
2023-02-14T04:09:21.857Z,-2.18
2023-02-14T04:14:27.058Z,-2.06
2023-02-14T04:19:30.003Z,-2.07
2023-02-14T04:24:33.660Z,-2.06
2023-02-14T04:29:48.799Z,-2.18
2023-02-14T04:34:52.771Z,-2.31
2023-02-14T04:39:56.341Z,-2.19
2023-02-14T04:44:59.825Z,-2.23
2023-02-14T04:50:03.643Z,-2.19
2023-02-14T04:55:07.712Z,-2.20
2023-02-14T05:00:12.525Z,-2.18
2023-02-14T05:05:15.720Z,-2.27
2023-02-14T05:10:19.220Z,-2.17
2023-02-14T05:15:22.877Z,-2.28
2023-02-14T05:20:26.349Z,-2.47
2023-02-14T05:25:32.948Z,-2.24
2023-02-14T05:30:37.226Z,-2.55
2023-02-14T05:35:40.301Z,-2.39
2023-02-14T05:40:46.316Z,-2.29
2023-02-14T05:45:50.448Z,-2.33
2023-02-14T05:50:53.939Z,-2.31
2023-02-14T05:55:57.977Z,-2.29
2023-02-14T06:01:02.130Z,-2.15
2023-02-14T06:06:06.818Z,-2.06
2023-02-14T06:11:10.159Z,-2.10
2023-02-14T06:16:13.375Z,-1.96
2023-02-14T06:21:16.865Z,-1.63
2023-02-14T06:26:20.410Z,-1.37
2023-02-14T06:31:25.516Z,-0.99
2023-02-14T06:38:28.037Z,-0.74
2023-02-14T06:43:31.931Z,-0.31
2023-02-14T06:48:35.346Z,4.17
2023-02-14T06:53:38.943Z,8.24
2023-02-14T06:58:41.994Z,10.90
2023-02-14T07:03:45.976Z,12.43
2023-02-14T07:08:50.648Z,12.43
2023-02-14T07:13:56.041Z,12.39
2023-02-14T07:18:59.253Z,13.36
2023-02-14T07:24:02.728Z,13.94
2023-02-14T07:29:05.918Z,13.52
2023-02-14T07:34:09.862Z,14.00
2023-02-14T07:39:13.098Z,15.27
2023-02-14T07:44:16.294Z,15.98
2023-02-14T07:49:19.825Z,13.80
2023-02-14T07:54:23.143Z,15.16
2023-02-14T07:59:26.918Z,16.64
2023-02-14T08:04:32.955Z,16.18
2023-02-14T08:09:37.174Z,15.89
2023-02-14T08:14:40.513Z,15.56
2023-02-14T08:19:44.234Z,15.66
2023-02-14T08:24:47.575Z,15.93
2023-02-14T08:29:51.164Z,16.47
2023-02-14T08:34:54.316Z,16.36
2023-02-14T08:39:57.362Z,15.79
2023-02-14T08:45:01.164Z,15.98
2023-02-14T08:50:09.980Z,15.56
2023-02-14T08:55:14.633Z,15.63
2023-02-14T09:00:18.066Z,14.90
2023-02-14T09:05:23.688Z,15.33
2023-02-14T09:10:28.642Z,15.54
2023-02-14T09:15:31.966Z,14.94
2023-02-14T09:20:35.437Z,15.96
2023-02-14T09:25:38.678Z,15.77
2023-02-14T09:30:42.209Z,16.34
2023-02-14T09:35:45.764Z,16.69
2023-02-14T09:40:50.672Z,17.59
2023-02-14T09:45:57.495Z,17.33
2023-02-14T09:51:05.680Z,16.76
2023-02-14T09:56:27.303Z,17.22
2023-02-14T10:01:41.783Z,16.17
2023-02-14T10:07:09.879Z,16.70
2023-02-14T10:12:47.952Z,16.40
2023-02-14T10:17:54.558Z,17.17
2023-02-14T10:23:04.949Z,16.00
2023-02-14T10:28:14.649Z,16.30
2023-02-14T10:33:33.702Z,15.87
2023-02-14T10:38:46.715Z,15.77
2023-02-14T10:44:26.358Z,15.71
2023-02-14T10:50:09.592Z,15.45
2023-02-14T10:55:32.096Z,15.60
2023-02-14T11:00:40.168Z,15.43
2023-02-14T11:05:47.819Z,14.33
2023-02-14T11:10:51.248Z,13.90
2023-02-14T11:15:58.797Z,14.17
2023-02-14T11:21:03.509Z,14.37
2023-02-14T11:26:22.823Z,13.40
2023-02-14T11:31:38.662Z,13.50
2023-02-14T11:36:43.280Z,12.96
2023-02-14T11:41:53.020Z,14.24
2023-02-14T11:46:58.337Z,13.63
2023-02-14T11:52:14.142Z,14.56
2023-02-14T11:57:45.413Z,14.78
2023-02-14T12:02:51.424Z,14.82
2023-02-14T12:07:59.321Z,14.28
2023-02-14T12:13:09.998Z,14.63
2023-02-14T12:18:37.903Z,14.77
2023-02-14T12:24:11.988Z,15.89
2023-02-14T12:29:43.811Z,16.15
2023-02-14T12:34:48.736Z,15.77
2023-02-14T12:39:54.818Z,15.78
2023-02-14T12:45:10.308Z,16.46
2023-02-14T12:50:34.699Z,16.43
2023-02-14T12:56:04.598Z,15.71
2023-02-14T13:01:42.008Z,16.03
2023-02-14T13:06:52.166Z,16.17
2023-02-14T13:12:15.073Z,16.57
2023-02-14T13:17:27.835Z,16.09
2023-02-14T13:22:34.225Z,16.66
2023-02-14T13:27:40.327Z,16.00
2023-02-14T13:32:47.859Z,15.30
2023-02-14T13:37:59.231Z,15.47
2023-02-14T13:43:02.909Z,14.12
2023-02-14T13:48:12.338Z,13.15
2023-02-14T13:53:44.219Z,12.30
2023-02-14T13:58:56.303Z,14.16
2023-02-14T14:04:03.230Z,14.92
2023-02-14T14:09:11.632Z,15.17
2023-02-14T14:14:30.618Z,15.41
2023-02-14T14:19:39.337Z,15.13
2023-02-14T14:24:56.740Z,15.04
2023-02-14T14:30:03.374Z,15.65
2023-02-14T14:35:26.757Z,15.67
2023-02-14T14:40:33.094Z,15.52
2023-02-14T14:45:37.065Z,15.60
2023-02-14T14:50:46.373Z,15.05
2023-02-14T14:55:52.410Z,15.11
2023-02-14T15:00:55.704Z,14.88
2023-02-14T15:06:19.303Z,14.33
2023-02-14T15:11:47.713Z,14.29
2023-02-14T15:16:55.031Z,14.58
2023-02-14T15:21:58.609Z,13.65
2023-02-14T15:27:03.960Z,13.87
2023-02-14T15:32:11.331Z,12.95
2023-02-14T15:37:15.440Z,12.65
2023-02-14T15:42:27.970Z,11.64
2023-02-14T15:47:33.767Z,10.91
2023-02-14T15:52:41.069Z,10.03
2023-02-14T15:57:48.775Z,9.68
2023-02-14T16:03:06.645Z,9.55
2023-02-14T16:08:34.374Z,9.05
2023-02-14T16:13:38.834Z,8.86
2023-02-14T16:18:50.912Z,8.46
2023-02-14T16:24:12.055Z,7.77
2023-02-14T16:29:17.113Z,7.63
2023-02-14T16:34:20.895Z,7.12
2023-02-14T16:39:25.340Z,6.63
2023-02-14T16:44:29.133Z,6.19
2023-02-14T16:49:32.480Z,5.83
2023-02-14T16:54:36.014Z,5.49
2023-02-14T16:59:40.025Z,5.16
2023-02-14T17:04:43.208Z,4.90
2023-02-14T17:09:52.120Z,4.64
2023-02-14T17:15:01.041Z,4.11
2023-02-14T17:20:08.739Z,4.16
2023-02-14T17:25:12.549Z,3.96
2023-02-14T17:30:16.337Z,3.73
2023-02-14T17:35:20.440Z,3.54
2023-02-14T17:40:25.724Z,3.43
2023-02-14T17:45:31.971Z,3.33
2023-02-14T17:50:37.975Z,3.15
2023-02-14T17:55:41.102Z,3.04
2023-02-14T18:00:44.730Z,2.97
2023-02-14T18:05:48.018Z,2.91
2023-02-14T18:10:51.544Z,2.71
2023-02-14T18:15:54.699Z,2.72
2023-02-14T18:21:03.059Z,2.72
2023-02-14T18:26:10.309Z,2.86
2023-02-14T18:31:17.224Z,3.19
2023-02-14T18:36:24.580Z,3.32
2023-02-14T18:41:28.103Z,3.24
2023-02-14T18:46:35.462Z,3.12
2023-02-14T18:51:41.757Z,2.95
2023-02-14T18:56:46.208Z,2.92
2023-02-14T19:01:49.250Z,2.81
2023-02-14T19:06:52.995Z,2.60
2023-02-14T19:12:00.435Z,2.47
2023-02-14T19:17:03.923Z,2.38
2023-02-14T19:22:06.891Z,2.02
2023-02-14T19:27:10.132Z,2.01
2023-02-14T19:32:13.281Z,1.87
2023-02-14T19:37:16.401Z,1.75
2023-02-14T19:42:20.735Z,1.58
2023-02-14T19:47:36.521Z,1.59
2023-02-14T19:52:49.021Z,1.39
2023-02-14T19:57:52.475Z,1.11
2023-02-14T20:02:56.030Z,1.09
2023-02-14T20:07:59.332Z,1.00
2023-02-14T20:13:02.920Z,0.94
2023-02-14T20:18:06.032Z,0.85
2023-02-14T20:23:09.272Z,0.76
2023-02-14T20:28:12.835Z,0.65
2023-02-14T20:33:16.373Z,0.85
2023-02-14T20:38:20.095Z,1.07
2023-02-14T20:43:25.945Z,1.55
2023-02-14T20:48:30.381Z,1.61
2023-02-14T20:53:33.427Z,1.26
2023-02-14T20:58:37.513Z,1.37
2023-02-14T21:03:51.198Z,1.17
2023-02-14T21:08:54.870Z,1.02
2023-02-14T21:13:59.990Z,0.91
2023-02-14T21:19:04.501Z,0.88
2023-02-14T21:24:14.852Z,0.70
2023-02-14T21:29:18.295Z,0.84
2023-02-14T21:34:21.526Z,0.73
2023-02-14T21:39:27.732Z,0.59
2023-02-14T21:44:50.146Z,0.51
2023-02-14T21:50:11.539Z,0.37
2023-02-14T21:55:17.762Z,0.30
2023-02-14T22:00:22.830Z,0.25
2023-02-14T22:05:26.668Z,0.21
2023-02-14T22:10:30.335Z,0.10
2023-02-14T22:15:33.384Z,0.03
2023-02-14T22:20:37.123Z,-0.31
2023-02-14T22:25:40.170Z,-0.08
2023-02-14T22:30:43.393Z,-0.14
2023-02-14T22:35:47.402Z,-0.04
2023-02-14T22:40:50.535Z,-0.02
2023-02-14T22:45:53.576Z,-0.16
2023-02-14T22:50:56.743Z,-0.11
2023-02-14T22:56:12.611Z,-0.12
2023-02-14T23:01:24.151Z,-0.05
2023-02-14T23:06:29.553Z,-0.14
2023-02-14T23:11:34.479Z,-0.27
2023-02-14T23:17:13.141Z,-0.35
2023-02-14T23:22:24.422Z,-0.36
2023-02-14T23:27:35.468Z,-0.49
2023-02-14T23:32:38.686Z,-0.62
2023-02-14T23:37:42.100Z,-0.58
2023-02-14T23:42:45.646Z,-0.66
2023-02-14T23:47:48.715Z,-0.49
2023-02-14T23:52:52.141Z,-0.56
2023-02-14T23:57:55.424Z,-0.45
